Time;durP1;ratioP1;P1;durP2;ratioP2;P2;SDS_P1;SDS_P2;PMS_P1;PMS_P2;Temp;Humidity;BMP_temperature;BMP_pressure;BME280_temperature;BME280_humidity;BME280_pressure;Samples;Min_cycle;Max_cycle;Signal;HPM_P1;HPM_P2
2023/05/04 00:03:59;;;;;;;;;;;12.30;51.10;;;;;;8411638;28;19928;-69
2023/05/04 00:08:01;;;;;;;;;;;12.30;51.30;;;;;;8406710;28;19931;-70
2023/05/04 00:12:03;;;;;;;;;;;12.20;51.50;;;;;;8409230;28;19925;-69
2023/05/04 00:16:05;;;;;;;;;;;12.10;52.00;;;;;;8376260;28;19932;-69
2023/05/04 00:20:07;;;;;;;;;;;12.10;51.80;;;;;;8391424;28;19925;-70
2023/05/04 00:24:09;;;;;;;;;;;12.00;52.00;;;;;;8402019;28;19925;-69
2023/05/04 00:28:10;;;;;;;;;;;12.00;52.00;;;;;;8410612;28;20305;-69
2023/05/04 00:32:12;;;;;;;;;;;11.90;52.00;;;;;;8389592;28;20422;-69
2023/05/04 00:36:14;;;;;;;;;;;11.90;52.40;;;;;;8410815;28;19924;-70
2023/05/04 00:40:16;;;;;;;;;;;11.80;52.80;;;;;;8413930;28;19932;-69
2023/05/04 00:44:17;;;;;;;;;;;11.80;52.70;;;;;;8419894;28;19928;-69
2023/05/04 00:48:19;;;;;;;;;;;11.70;53.10;;;;;;8413424;28;19929;-69
2023/05/04 00:52:22;;;;;;;;;;;11.70;53.80;;;;;;8421143;28;20255;-69
2023/05/04 00:56:24;;;;;;;;;;;11.60;53.50;;;;;;8426759;28;20298;-70
2023/05/04 01:00:26;;;;;;;;;;;11.50;53.70;;;;;;8418615;28;19928;-69
2023/05/04 01:04:28;;;;;;;;;;;11.40;54.50;;;;;;8401148;28;19971;-69
2023/05/04 01:08:31;;;;;;;;;;;11.40;54.20;;;;;;8402036;28;19928;-69
2023/05/04 01:12:47;;;;;;;;;;;11.30;54.80;;;;;;8415162;28;19928;-69
2023/05/04 01:16:51;;;;;;;;;;;11.30;54.50;;;;;;8413330;28;20348;-69
2023/05/04 01:20:53;;;;;;;;;;;11.20;54.90;;;;;;8400521;28;19946;-69
2023/05/04 01:24:55;;;;;;;;;;;11.10;55.40;;;;;;8398296;28;19934;-69
2023/05/04 01:29:00;;;;;;;;;;;11.10;55.00;;;;;;8397134;28;19936;-69
2023/05/04 01:33:03;;;;;;;;;;;11.00;55.30;;;;;;8399324;28;19932;-69
2023/05/04 01:37:05;;;;;;;;;;;11.00;56.10;;;;;;8407239;28;19977;-69
2023/05/04 01:41:06;;;;;;;;;;;11.00;55.00;;;;;;8392227;28;20606;-69
2023/05/04 01:45:08;;;;;;;;;;;11.00;55.10;;;;;;8389850;28;19971;-69
2023/05/04 01:49:10;;;;;;;;;;;10.90;54.70;;;;;;8376994;28;20027;-69
2023/05/04 01:53:11;;;;;;;;;;;10.90;54.90;;;;;;8410632;28;19924;-70
2023/05/04 01:57:13;;;;;;;;;;;10.90;55.90;;;;;;8386676;28;19924;-69
2023/05/04 02:01:15;;;;;;;;;;;10.90;55.80;;;;;;8414561;28;19928;-69
2023/05/04 02:05:16;;;;;;;;;;;10.90;55.70;;;;;;8379854;28;19925;-69
2023/05/04 02:09:18;;;;;;;;;;;10.80;56.20;;;;;;8399605;28;19960;-69
2023/05/04 02:13:20;;;;;;;;;;;10.70;56.50;;;;;;8399438;28;19973;-69
2023/05/04 02:17:22;;;;;;;;;;;10.70;55.70;;;;;;8381196;28;19924;-69
2023/05/04 02:21:23;;;;;;;;;;;10.60;56.00;;;;;;8418799;28;19928;-70
2023/05/04 02:25:25;;;;;;;;;;;10.60;56.20;;;;;;8390482;28;19931;-69
2023/05/04 02:29:27;;;;;;;;;;;10.50;57.20;;;;;;8374789;28;19964;-69
2023/05/04 02:33:28;;;;;;;;;;;10.40;56.70;;;;;;8381142;28;20411;-69
2023/05/04 02:37:30;;;;;;;;;;;10.40;58.50;;;;;;8401503;28;19938;-69
2023/05/04 02:41:31;;;;;;;;;;;10.30;56.70;;;;;;8396088;28;19932;-69
2023/05/04 02:45:33;;;;;;;;;;;10.30;56.70;;;;;;8378868;28;19932;-69
2023/05/04 02:49:35;;;;;;;;;;;10.20;56.80;;;;;;8392679;28;19977;-69
2023/05/04 02:53:37;;;;;;;;;;;10.20;57.00;;;;;;8412601;28;19924;-69
2023/05/04 02:57:38;;;;;;;;;;;10.10;56.80;;;;;;8405107;28;20078;-69
2023/05/04 03:01:40;;;;;;;;;;;10.10;57.20;;;;;;8381449;28;20384;-69
2023/05/04 03:05:41;;;;;;;;;;;10.00;57.40;;;;;;8386137;28;19932;-69
2023/05/04 03:09:43;;;;;;;;;;;10.00;57.50;;;;;;8391809;28;20387;-69
2023/05/04 03:13:47;;;;;;;;;;;9.90;58.10;;;;;;8399672;28;20358;-69
2023/05/04 03:17:49;;;;;;;;;;;9.90;58.40;;;;;;8386680;28;19931;-69
2023/05/04 03:21:51;;;;;;;;;;;9.80;58.20;;;;;;8402307;28;20368;-69
2023/05/04 03:25:52;;;;;;;;;;;9.80;57.90;;;;;;8385541;28;19983;-69
2023/05/04 03:29:54;;;;;;;;;;;9.70;57.80;;;;;;8385418;28;19960;-70
2023/05/04 03:33:56;;;;;;;;;;;9.70;58.10;;;;;;8411969;28;19975;-69
2023/05/04 03:37:57;;;;;;;;;;;9.60;58.10;;;;;;8382359;28;19939;-70
2023/05/04 03:41:59;;;;;;;;;;;9.60;58.20;;;;;;8359604;28;19940;-69
2023/05/04 03:46:01;;;;;;;;;;;9.50;58.40;;;;;;8395023;28;19928;-70
2023/05/04 03:50:03;;;;;;;;;;;9.50;58.30;;;;;;8391864;28;19967;-70
2023/05/04 03:54:05;;;;;;;;;;;9.50;58.30;;;;;;8415913;28;19982;-69
2023/05/04 03:58:06;;;;;;;;;;;9.40;58.60;;;;;;8397836;28;19924;-69
2023/05/04 04:02:08;;;;;;;;;;;9.40;58.20;;;;;;8391687;28;19967;-69
2023/05/04 04:06:12;;;;;;;;;;;9.30;58.80;;;;;;8366652;28;20372;-69
2023/05/04 04:10:13;;;;;;;;;;;9.30;58.80;;;;;;8386977;28;19960;-69
2023/05/04 04:14:15;;;;;;;;;;;9.30;58.70;;;;;;8393472;28;19924;-69
2023/05/04 04:18:16;;;;;;;;;;;9.20;59.90;;;;;;8379956;28;19933;-69
2023/05/04 04:22:18;;;;;;;;;;;9.20;58.80;;;;;;8378137;28;19924;-69
2023/05/04 04:26:20;;;;;;;;;;;9.20;59.00;;;;;;8389210;28;21121;-69
2023/05/04 04:30:22;;;;;;;;;;;9.20;59.10;;;;;;8400041;28;19924;-69
2023/05/04 04:34:23;;;;;;;;;;;9.20;58.90;;;;;;8389056;28;19925;-70
2023/05/04 04:38:25;;;;;;;;;;;9.20;59.20;;;;;;8391676;28;20279;-69
2023/05/04 04:42:27;;;;;;;;;;;9.20;59.20;;;;;;8402833;28;20294;-69
2023/05/04 04:46:28;;;;;;;;;;;9.20;60.00;;;;;;8366996;28;20031;-71
2023/05/04 04:50:31;;;;;;;;;;;9.30;61.60;;;;;;8396191;28;20280;-69
2023/05/04 04:54:32;;;;;;;;;;;9.30;62.30;;;;;;8401384;28;19971;-69
2023/05/04 04:58:34;;;;;;;;;;;9.30;60.00;;;;;;8403752;28;19966;-69
2023/05/04 05:02:36;;;;;;;;;;;9.30;60.00;;;;;;8393320;28;19971;-69
2023/05/04 05:06:38;;;;;;;;;;;9.40;60.40;;;;;;8381510;28;19931;-69
2023/05/04 05:10:39;;;;;;;;;;;9.40;60.80;;;;;;8366016;28;19928;-69
2023/05/04 05:14:46;;;;;;;;;;;9.50;61.30;;;;;;8396271;28;19931;-69
2023/05/04 05:18:47;;;;;;;;;;;9.50;63.00;;;;;;8360727;28;19924;-69
2023/05/04 05:22:50;;;;;;;;;;;9.60;62.70;;;;;;8412633;28;20340;-69
2023/05/04 05:26:52;;;;;;;;;;;9.60;64.70;;;;;;8398424;28;19924;-69
2023/05/04 05:30:53;;;;;;;;;;;9.70;63.50;;;;;;8399198;28;19959;-69
2023/05/04 05:34:55;;;;;;;;;;;9.80;63.50;;;;;;8399374;28;19929;-69
2023/05/04 05:38:57;;;;;;;;;;;9.80;62.80;;;;;;8399326;28;19964;-69
2023/05/04 05:42:59;;;;;;;;;;;10.00;62.20;;;;;;8369490;28;19925;-69
2023/05/04 05:47:01;;;;;;;;;;;10.10;61.90;;;;;;8356289;28;19936;-69
2023/05/04 05:51:03;;;;;;;;;;;10.10;62.70;;;;;;8356183;28;19932;-69
2023/05/04 05:55:04;;;;;;;;;;;10.20;62.80;;;;;;8358867;28;19932;-69
2023/05/04 05:59:06;;;;;;;;;;;10.30;63.90;;;;;;8379261;28;19928;-69
2023/05/04 06:03:07;;;;;;;;;;;10.40;63.60;;;;;;8364511;28;20016;-69
2023/05/04 06:07:09;;;;;;;;;;;10.60;63.10;;;;;;8357110;28;20363;-69
2023/05/04 06:11:11;;;;;;;;;;;10.80;63.60;;;;;;8358757;28;19974;-69
2023/05/04 06:15:13;;;;;;;;;;;10.90;64.70;;;;;;8362269;28;19956;-69
2023/05/04 06:29:04;;;;;;;;;;;11.30;64.70;;;;;;8365256;28;19963;-69
2023/05/04 06:33:06;;;;;;;;;;;11.40;65.00;;;;;;8355850;28;20023;-69
2023/05/04 06:37:07;;;;;;;;;;;11.50;64.40;;;;;;8353958;28;20013;-69
2023/05/04 06:41:09;;;;;;;;;;;11.60;64.80;;;;;;8355429;28;19932;-70
2023/05/04 06:45:11;;;;;;;;;;;11.60;64.70;;;;;;8354678;28;20279;-70
2023/05/04 06:49:13;;;;;;;;;;;11.70;65.10;;;;;;8348796;28;19929;-70
2023/05/04 06:53:15;;;;;;;;;;;11.80;65.30;;;;;;8350866;28;20024;-69
2023/05/04 06:57:17;;;;;;;;;;;11.90;65.50;;;;;;8358695;28;20447;-70
2023/05/04 07:01:18;;;;;;;;;;;12.10;66.90;;;;;;8355722;28;19935;-70
2023/05/04 07:05:21;;;;;;;;;;;12.20;65.30;;;;;;8357339;28;19925;-70
2023/05/04 07:09:22;;;;;;;;;;;12.40;65.90;;;;;;8369020;28;19932;-70
2023/05/04 07:13:24;;;;;;;;;;;12.50;67.00;;;;;;8374191;28;19929;-69
2023/05/04 07:17:26;;;;;;;;;;;12.80;67.70;;;;;;8358632;28;20043;-69
2023/05/04 07:21:29;;;;;;;;;;;13.10;68.30;;;;;;8368779;28;20202;-70
2023/05/04 07:25:31;;;;;;;;;;;13.40;71.50;;;;;;8350186;28;19936;-70
2023/05/04 07:29:34;;;;;;;;;;;13.60;68.10;;;;;;8361206;28;19932;-70
2023/05/04 07:33:35;;;;;;;;;;;13.80;70.00;;;;;;8350093;28;19925;-69
2023/05/04 07:37:37;;;;;;;;;;;13.90;68.60;;;;;;8363028;28;19959;-70
2023/05/04 07:41:39;;;;;;;;;;;14.10;71.20;;;;;;8342525;28;19979;-70
2023/05/04 07:45:40;;;;;;;;;;;14.30;68.40;;;;;;8349256;28;19928;-70
2023/05/04 07:49:42;;;;;;;;;;;14.60;70.30;;;;;;8355725;28;19929;-70
2023/05/04 07:53:44;;;;;;;;;;;14.80;69.20;;;;;;8356604;28;19999;-70
2023/05/04 07:57:46;;;;;;;;;;;15.00;70.30;;;;;;8361417;28;19933;-69
2023/05/04 08:01:48;;;;;;;;;;;15.30;70.30;;;;;;8361294;28;19934;-70
2023/05/04 08:05:50;;;;;;;;;;;15.40;72.20;;;;;;8356748;28;19972;-70
2023/05/04 08:09:54;;;;;;;;;;;15.60;70.80;;;;;;8361607;28;19975;-70
2023/05/04 08:13:56;;;;;;;;;;;15.70;70.60;;;;;;8360508;28;19968;-70
2023/05/04 08:17:58;;;;;;;;;;;15.90;71.00;;;;;;8361515;28;19932;-70
2023/05/04 08:21:59;;;;;;;;;;;16.00;71.00;;;;;;8358365;28;19978;-70
2023/05/04 08:26:02;;;;;;;;;;;16.10;72.00;;;;;;8357444;28;20334;-70
2023/05/04 08:30:04;;;;;;;;;;;16.20;71.70;;;;;;8356583;28;19925;-70
2023/05/04 08:34:06;;;;;;;;;;;16.30;72.40;;;;;;8361836;28;20384;-70
2023/05/04 08:38:07;;;;;;;;;;;16.40;72.10;;;;;;8357698;28;19975;-70
2023/05/04 08:42:10;;;;;;;;;;;16.50;72.10;;;;;;8349122;28;19971;-70
2023/05/04 08:46:12;;;;;;;;;;;16.70;72.00;;;;;;8349790;28;20295;-70
2023/05/04 08:50:14;;;;;;;;;;;16.80;72.80;;;;;;8344874;28;19924;-70
2023/05/04 08:54:16;;;;;;;;;;;16.90;73.70;;;;;;8360370;28;20404;-70
2023/05/04 08:58:19;;;;;;;;;;;17.00;72.70;;;;;;8360952;28;19932;-70
2023/05/04 09:02:22;;;;;;;;;;;17.20;73.50;;;;;;8370881;28;20388;-70
2023/05/04 09:06:24;;;;;;;;;;;17.30;72.60;;;;;;8357316;28;19929;-70
2023/05/04 09:10:25;;;;;;;;;;;17.40;74.20;;;;;;8355207;28;19924;-70
2023/05/04 09:14:34;;;;;;;;;;;17.60;74.70;;;;;;8364728;28;20296;-70
2023/05/04 09:18:37;;;;;;;;;;;17.70;72.60;;;;;;8350638;28;19963;-70
2023/05/04 09:22:39;;;;;;;;;;;17.90;73.20;;;;;;8360772;28;19924;-70
2023/05/04 09:26:41;;;;;;;;;;;18.00;73.20;;;;;;8376093;28;20027;-70
2023/05/04 09:30:43;;;;;;;;;;;18.20;73.80;;;;;;8352234;28;19933;-70
2023/05/04 09:34:45;;;;;;;;;;;18.40;73.80;;;;;;8355570;28;19932;-70
2023/05/04 09:38:47;;;;;;;;;;;18.60;74.10;;;;;;8358892;28;19924;-70
2023/05/04 09:42:55;;;;;;;;;;;18.70;73.30;;;;;;8357150;28;19978;-71
2023/05/04 09:46:57;;;;;;;;;;;18.90;73.40;;;;;;8357452;28;19928;-71
2023/05/04 09:51:01;;;;;;;;;;;19.00;73.10;;;;;;8354636;28;20448;-70
2023/05/04 09:55:03;;;;;;;;;;;19.20;73.50;;;;;;8357332;28;19932;-70
2023/05/04 09:59:05;;;;;;;;;;;19.40;72.70;;;;;;8360121;28;19986;-70
2023/05/04 10:03:07;;;;;;;;;;;19.60;72.10;;;;;;8355710;28;19929;-70
2023/05/04 10:07:09;;;;;;;;;;;19.70;72.10;;;;;;8356476;28;19944;-70
2023/05/04 10:11:11;;;;;;;;;;;19.90;72.80;;;;;;8357880;28;19924;-70
2023/05/04 10:15:13;;;;;;;;;;;20.10;72.40;;;;;;8354590;28;20411;-70
2023/05/04 10:19:34;;;;;;;;;;;20.20;72.10;;;;;;8358111;28;19925;-71
2023/05/04 10:23:49;;;;;;;;;;;20.30;71.30;;;;;;8373754;28;19950;-70
2023/05/04 10:28:03;;;;;;;;;;;20.30;71.50;;;;;;8353587;28;19957;-70
2023/05/04 10:32:15;;;;;;;;;;;20.50;72.20;;;;;;8359066;28;19928;-71
2023/05/04 10:36:17;;;;;;;;;;;20.90;71.60;;;;;;8353972;28;19929;-71
2023/05/04 10:40:20;;;;;;;;;;;21.10;72.90;;;;;;8354347;28;20016;-70
2023/05/04 10:44:21;;;;;;;;;;;21.40;74.30;;;;;;8354112;28;19939;-71
2023/05/04 10:48:32;;;;;;;;;;;21.60;73.20;;;;;;8352224;28;19933;-71
2023/05/04 10:52:46;;;;;;;;;;;21.80;78.90;;;;;;8352707;28;19928;-71
2023/05/04 10:56:48;;;;;;;;;;;22.10;79.60;;;;;;8355518;28;19925;-70
2023/05/04 11:00:50;;;;;;;;;;;22.30;80.90;;;;;;8347514;28;19933;-70
2023/05/04 11:04:59;;;;;;;;;;;22.60;83.90;;;;;;8355913;28;19939;-70
2023/05/04 11:09:01;;;;;;;;;;;23.00;83.80;;;;;;8356513;28;19931;-70
2023/05/04 11:13:03;;;;;;;;;;;23.30;90.00;;;;;;8351180;28;20371;-70
2023/05/04 11:17:06;;;;;;;;;;;23.70;91.10;;;;;;8360501;28;19933;-70
2023/05/04 11:21:27;;;;;;;;;;;24.10;91.70;;;;;;8350013;28;20027;-71
2023/05/04 11:25:29;;;;;;;;;;;24.20;90.50;;;;;;8355920;28;19924;-70
2023/05/04 11:29:31;;;;;;;;;;;24.30;90.20;;;;;;8353157;28;19948;-70
2023/05/04 11:33:32;;;;;;;;;;;24.50;90.30;;;;;;8369655;28;20324;-71
2023/05/04 11:37:39;;;;;;;;;;;24.80;92.60;;;;;;8362439;28;19953;-71
2023/05/04 11:41:42;;;;;;;;;;;25.10;92.80;;;;;;8353925;28;19925;-70
2023/05/04 11:45:46;;;;;;;;;;;25.00;92.30;;;;;;8337283;28;19968;-71
2023/05/04 11:49:48;;;;;;;;;;;24.80;90.20;;;;;;8354645;28;21941;-71
2023/05/04 11:53:50;;;;;;;;;;;24.50;86.50;;;;;;8355712;28;23167;-71
2023/05/04 11:58:10;;;;;;;;;;;24.40;81.10;;;;;;8361642;28;19928;-71
2023/05/04 12:02:15;;;;;;;;;;;24.50;80.50;;;;;;8361111;28;20971;-71
2023/05/04 12:06:17;;;;;;;;;;;24.60;79.20;;;;;;8363177;28;20015;-71
2023/05/04 12:10:25;;;;;;;;;;;25.00;83.00;;;;;;8366479;28;19935;-71
2023/05/04 12:14:27;;;;;;;;;;;25.30;85.70;;;;;;8359015;28;20753;-71
2023/05/04 12:18:28;;;;;;;;;;;25.50;88.50;;;;;;8372936;28;19935;-71
2023/05/04 12:22:34;;;;;;;;;;;25.40;83.70;;;;;;8354497;28;20285;-71
2023/05/04 12:26:36;;;;;;;;;;;25.20;79.10;;;;;;8355557;28;19931;-72
2023/05/04 12:30:38;;;;;;;;;;;24.90;76.50;;;;;;8353113;28;19929;-71
2023/05/04 12:34:39;;;;;;;;;;;24.80;74.70;;;;;;8350279;28;20016;-71
2023/05/04 12:38:41;;;;;;;;;;;24.70;72.80;;;;;;8350233;28;20015;-71
2023/05/04 12:42:43;;;;;;;;;;;24.70;70.90;;;;;;8357962;28;20336;-71
2023/05/04 12:46:45;;;;;;;;;;;24.70;70.50;;;;;;8359025;28;19924;-71
2023/05/04 12:50:47;;;;;;;;;;;24.80;67.70;;;;;;8357604;28;19939;-71
2023/05/04 12:54:49;;;;;;;;;;;24.80;68.30;;;;;;8335894;28;19960;-71
2023/05/04 12:58:51;;;;;;;;;;;25.20;72.50;;;;;;8353659;28;20300;-71
2023/05/04 13:02:53;;;;;;;;;;;25.70;74.80;;;;;;8368445;28;19935;-71
2023/05/04 13:06:54;;;;;;;;;;;25.80;74.50;;;;;;8359847;28;19934;-71
2023/05/04 13:10:56;;;;;;;;;;;25.80;73.30;;;;;;8356691;28;19936;-71
2023/05/04 13:14:58;;;;;;;;;;;25.80;71.60;;;;;;8352394;28;19925;-71
2023/05/04 13:19:00;;;;;;;;;;;25.80;69.90;;;;;;8337858;28;19936;-71
2023/05/04 13:23:02;;;;;;;;;;;25.70;64.30;;;;;;8362654;28;20400;-71
2023/05/04 13:27:04;;;;;;;;;;;25.60;66.90;;;;;;8342928;28;19963;-71
2023/05/04 13:31:07;;;;;;;;;;;25.50;67.30;;;;;;8356952;28;20554;-71
2023/05/04 13:35:09;;;;;;;;;;;25.60;67.50;;;;;;8348392;28;20439;-71
2023/05/04 13:39:10;;;;;;;;;;;25.70;66.10;;;;;;8365352;28;19925;-71
2023/05/04 13:43:12;;;;;;;;;;;25.80;66.40;;;;;;8348066;28;20646;-71
2023/05/04 13:47:16;;;;;;;;;;;26.10;67.50;;;;;;8341183;28;20550;-71
2023/05/04 13:51:18;;;;;;;;;;;26.30;66.90;;;;;;8352356;28;19996;-71
2023/05/04 13:55:20;;;;;;;;;;;26.30;68.90;;;;;;8349356;28;19929;-71
2023/05/04 13:59:21;;;;;;;;;;;26.40;69.30;;;;;;8361534;28;19925;-71
2023/05/04 14:03:23;;;;;;;;;;;26.70;69.60;;;;;;8362884;28;19939;-71
2023/05/04 14:07:25;;;;;;;;;;;27.20;71.50;;;;;;8359390;28;19933;-71
2023/05/04 14:11:27;;;;;;;;;;;27.50;73.20;;;;;;8359961;28;20023;-71
2023/05/04 14:15:29;;;;;;;;;;;27.80;73.30;;;;;;8353291;28;20295;-71
2023/05/04 14:19:30;;;;;;;;;;;28.00;71.70;;;;;;8353969;28;19925;-71
2023/05/04 14:23:32;;;;;;;;;;;28.10;73.90;;;;;;8356349;28;19986;-71
2023/05/04 14:27:34;;;;;;;;;;;28.20;68.80;;;;;;8354093;28;19972;-71
2023/05/04 14:31:35;;;;;;;;;;;28.20;70.60;;;;;;8347235;28;19925;-71
2023/05/04 14:35:38;;;;;;;;;;;28.30;72.10;;;;;;8349650;28;19935;-71
2023/05/04 14:39:40;;;;;;;;;;;28.40;69.40;;;;;;8346587;28;20024;-71
2023/05/04 14:43:42;;;;;;;;;;;28.30;67.80;;;;;;8354150;28;19935;-71
2023/05/04 14:47:44;;;;;;;;;;;28.40;68.70;;;;;;8344525;28;19929;-71
2023/05/04 14:51:46;;;;;;;;;;;28.70;71.10;;;;;;8350585;28;19932;-71
2023/05/04 14:55:49;;;;;;;;;;;29.00;70.20;;;;;;8369982;28;19975;-71
2023/05/04 14:59:51;;;;;;;;;;;29.40;70.10;;;;;;8352793;28;19932;-71
2023/05/04 15:03:52;;;;;;;;;;;29.80;70.50;;;;;;8349940;28;20424;-71
2023/05/04 15:07:54;;;;;;;;;;;30.00;71.50;;;;;;8346740;28;19933;-71
2023/05/04 15:11:56;;;;;;;;;;;30.30;71.40;;;;;;8349925;28;19932;-71
2023/05/04 15:15:58;;;;;;;;;;;30.70;68.80;;;;;;8350483;28;20377;-71
2023/05/04 15:20:00;;;;;;;;;;;31.00;72.30;;;;;;8355673;28;19925;-71
2023/05/04 15:24:02;;;;;;;;;;;31.50;67.70;;;;;;8347691;28;20015;-72
2023/05/04 15:28:08;;;;;;;;;;;32.00;72.10;;;;;;8343618;28;19929;-71
2023/05/04 15:32:10;;;;;;;;;;;32.60;70.40;;;;;;8348946;28;20042;-71
2023/05/04 15:36:12;;;;;;;;;;;32.90;70.70;;;;;;8347371;28;20758;-71
2023/05/04 15:40:13;;;;;;;;;;;32.70;67.20;;;;;;8360068;28;19937;-71
2023/05/04 15:44:15;;;;;;;;;;;32.40;66.60;;;;;;8350856;28;19994;-71
2023/05/04 15:48:17;;;;;;;;;;;31.70;63.90;;;;;;8371149;28;19931;-71
2023/05/04 15:52:19;;;;;;;;;;;31.20;63.00;;;;;;8373014;28;20387;-71
2023/05/04 15:56:21;;;;;;;;;;;30.70;61.60;;;;;;8352965;28;19925;-71
2023/05/04 16:00:22;;;;;;;;;;;30.20;60.40;;;;;;8349119;28;20289;-72
2023/05/04 16:04:24;;;;;;;;;;;30.00;58.20;;;;;;8353202;28;19936;-72
2023/05/04 16:08:26;;;;;;;;;;;29.90;58.50;;;;;;8353528;28;19932;-71
2023/05/04 16:12:27;;;;;;;;;;;29.80;58.30;;;;;;8357133;28;20413;-71
2023/05/04 16:16:29;;;;;;;;;;;30.10;58.40;;;;;;8358481;28;19962;-72
2023/05/04 16:20:31;;;;;;;;;;;30.70;58.90;;;;;;8358750;28;19929;-71
2023/05/04 16:24:33;;;;;;;;;;;31.20;60.70;;;;;;8353682;28;20300;-72
2023/05/04 16:28:35;;;;;;;;;;;31.60;60.20;;;;;;8342814;28;20380;-71
2023/05/04 16:32:37;;;;;;;;;;;31.50;58.80;;;;;;8367322;28;19947;-72
2023/05/04 16:36:38;;;;;;;;;;;31.30;57.40;;;;;;8348757;28;19928;-71
2023/05/04 16:40:40;;;;;;;;;;;31.40;56.60;;;;;;8353982;28;19925;-72
2023/05/04 16:44:42;;;;;;;;;;;31.20;56.10;;;;;;8357030;28;19931;-71
2023/05/04 16:48:43;;;;;;;;;;;31.20;55.30;;;;;;8352515;28;20390;-71
2023/05/04 16:52:45;;;;;;;;;;;31.00;54.60;;;;;;8345520;28;19932;-72
2023/05/04 16:56:47;;;;;;;;;;;30.60;53.80;;;;;;8359247;28;19958;-71
2023/05/04 17:00:48;;;;;;;;;;;30.40;53.60;;;;;;8371762;28;19925;-71
2023/05/04 17:04:50;;;;;;;;;;;30.50;53.30;;;;;;8355470;28;19936;-71
2023/05/04 17:08:52;;;;;;;;;;;30.40;51.60;;;;;;8341141;28;19928;-71
2023/05/04 17:12:53;;;;;;;;;;;30.60;52.90;;;;;;8342378;28;19968;-71
2023/05/04 17:16:55;;;;;;;;;;;30.90;53.90;;;;;;8347289;28;20660;-72
2023/05/04 17:20:57;;;;;;;;;;;30.70;52.70;;;;;;8360005;28;20069;-72
2023/05/04 17:24:58;;;;;;;;;;;30.30;51.90;;;;;;8359476;28;20002;-71
2023/05/04 17:29:00;;;;;;;;;;;30.10;51.20;;;;;;8351151;28;19935;-72
2023/05/04 17:33:01;;;;;;;;;;;30.10;51.60;;;;;;8355050;28;19931;-72
2023/05/04 17:37:03;;;;;;;;;;;30.10;51.10;;;;;;8365662;28;20893;-72
2023/05/04 17:41:05;;;;;;;;;;;30.10;51.00;;;;;;8341669;28;20839;-72
2023/05/04 17:45:07;;;;;;;;;;;30.30;50.80;;;;;;8366420;28;19928;-71
2023/05/04 17:49:09;;;;;;;;;;;30.20;50.80;;;;;;8332092;28;19929;-71
2023/05/04 17:53:10;;;;;;;;;;;30.00;50.60;;;;;;8322421;28;19925;-71
2023/05/04 17:57:12;;;;;;;;;;;29.60;50.10;;;;;;8319303;28;20031;-72
2023/05/04 18:01:15;;;;;;;;;;;29.00;49.30;;;;;;8319497;28;20027;-71
2023/05/04 18:05:20;;;;;;;;;;;28.40;48.70;;;;;;8321984;28;19924;-71
2023/05/04 18:09:21;;;;;;;;;;;27.70;48.00;;;;;;8318173;28;20019;-72
2023/05/04 18:13:23;;;;;;;;;;;27.20;48.00;;;;;;8318577;28;19932;-71
2023/05/04 18:17:26;;;;;;;;;;;26.70;47.50;;;;;;8321850;28;19933;-74
2023/05/04 18:21:27;;;;;;;;;;;26.40;47.40;;;;;;8321010;28;20493;-76
2023/05/04 18:25:29;;;;;;;;;;;26.20;47.70;;;;;;8311704;28;20385;-73
2023/05/04 18:29:31;;;;;;;;;;;26.00;47.80;;;;;;8323122;28;19968;-74
2023/05/04 18:33:33;;;;;;;;;;;25.80;47.10;;;;;;8320707;28;19940;-73
2023/05/04 18:37:35;;;;;;;;;;;25.60;47.00;;;;;;8312162;28;19979;-73
2023/05/04 18:41:37;;;;;;;;;;;25.40;47.00;;;;;;8307536;28;19925;-73
2023/05/04 18:45:38;;;;;;;;;;;25.20;47.00;;;;;;8321548;28;19971;-73
2023/05/04 18:49:40;;;;;;;;;;;25.10;47.40;;;;;;8347943;28;19925;-73
2023/05/04 18:53:42;;;;;;;;;;;25.00;46.90;;;;;;8370022;28;19929;-73
2023/05/04 18:57:44;;;;;;;;;;;24.80;46.60;;;;;;8370925;28;19933;-74
2023/05/04 19:01:45;;;;;;;;;;;24.60;46.60;;;;;;8368279;28;19980;-74
2023/05/04 19:05:47;;;;;;;;;;;24.40;46.10;;;;;;8358727;28;19937;-73
2023/05/04 19:09:48;;;;;;;;;;;24.20;46.30;;;;;;8358241;28;20295;-73
2023/05/04 19:13:50;;;;;;;;;;;24.00;45.90;;;;;;8357758;28;19935;-73
2023/05/04 19:17:52;;;;;;;;;;;23.90;46.00;;;;;;8356440;28;19925;-73
2023/05/04 19:21:54;;;;;;;;;;;23.70;45.90;;;;;;8360661;28;19935;-73
2023/05/04 19:25:55;;;;;;;;;;;23.60;46.00;;;;;;8367383;28;20295;-73
2023/05/04 19:29:57;;;;;;;;;;;23.50;46.10;;;;;;8367194;28;19940;-72
2023/05/04 19:33:59;;;;;;;;;;;23.30;46.10;;;;;;8359067;28;19931;-73
2023/05/04 19:38:00;;;;;;;;;;;23.20;46.10;;;;;;8364360;28;20392;-73
2023/05/04 19:42:02;;;;;;;;;;;23.00;46.10;;;;;;8368438;28;19935;-73
2023/05/04 19:46:04;;;;;;;;;;;22.90;46.20;;;;;;8363596;28;19950;-73
2023/05/04 19:50:12;;;;;;;;;;;22.70;46.10;;;;;;8362356;28;20344;-73
2023/05/04 19:54:14;;;;;;;;;;;22.60;46.20;;;;;;8369825;28;19929;-73
2023/05/04 19:58:16;;;;;;;;;;;22.50;46.20;;;;;;8365787;28;19968;-73
2023/05/04 20:02:18;;;;;;;;;;;22.40;46.40;;;;;;8367455;28;20369;-73
2023/05/04 20:06:20;;;;;;;;;;;22.30;46.60;;;;;;8367282;28;19925;-73
2023/05/04 20:10:22;;;;;;;;;;;22.20;46.60;;;;;;8364515;28;19924;-73
2023/05/04 20:14:23;;;;;;;;;;;22.10;46.50;;;;;;8362172;28;19935;-73
2023/05/04 20:18:25;;;;;;;;;;;22.00;46.80;;;;;;8367542;28;19929;-73
2023/05/04 20:22:27;;;;;;;;;;;21.90;46.70;;;;;;8357989;28;23116;-73
2023/05/04 20:26:28;;;;;;;;;;;21.80;47.70;;;;;;8362349;28;19935;-73
2023/05/04 20:30:30;;;;;;;;;;;21.70;46.80;;;;;;8364436;28;20347;-73
2023/05/04 20:34:32;;;;;;;;;;;21.70;47.20;;;;;;8358305;28;20002;-73
2023/05/04 20:38:33;;;;;;;;;;;21.60;47.40;;;;;;8364919;28;20027;-73
2023/05/04 20:42:35;;;;;;;;;;;21.50;47.50;;;;;;8368234;28;19933;-73
2023/05/04 20:46:37;;;;;;;;;;;21.40;47.80;;;;;;8364726;28;19925;-74
2023/05/04 20:50:39;;;;;;;;;;;21.40;47.40;;;;;;8364493;28;19935;-73
2023/05/04 20:54:40;;;;;;;;;;;21.40;47.90;;;;;;8342920;28;20316;-74
2023/05/04 20:58:42;;;;;;;;;;;21.30;47.80;;;;;;8362534;28;19946;-73
2023/05/04 21:02:44;;;;;;;;;;;21.30;48.00;;;;;;8380752;28;19964;-73
2023/05/04 21:06:45;;;;;;;;;;;21.30;48.30;;;;;;8393712;28;19924;-73
2023/05/04 21:10:48;;;;;;;;;;;21.20;49.20;;;;;;8402279;28;19970;-73
2023/05/04 21:14:50;;;;;;;;;;;21.20;48.10;;;;;;8379349;28;19924;-73
2023/05/04 21:18:52;;;;;;;;;;;21.10;48.80;;;;;;8399171;28;19924;-73
2023/05/04 21:22:54;;;;;;;;;;;21.10;48.60;;;;;;8392285;28;19935;-74
2023/05/04 21:26:56;;;;;;;;;;;21.00;48.00;;;;;;8382423;28;20261;-73
2023/05/04 21:30:58;;;;;;;;;;;21.00;48.30;;;;;;8411637;28;20387;-73
2023/05/04 21:35:00;;;;;;;;;;;20.90;48.80;;;;;;8399170;28;20875;-73
2023/05/04 21:39:02;;;;;;;;;;;20.80;48.60;;;;;;8391063;28;19939;-73
2023/05/04 21:43:03;;;;;;;;;;;20.80;48.30;;;;;;8391458;28;20432;-73
2023/05/04 21:47:05;;;;;;;;;;;20.80;49.20;;;;;;8369180;28;19955;-73
2023/05/04 21:51:07;;;;;;;;;;;20.70;48.40;;;;;;8392131;28;19938;-73
2023/05/04 21:55:09;;;;;;;;;;;20.70;48.50;;;;;;8399440;28;19959;-73
2023/05/04 21:59:11;;;;;;;;;;;20.70;48.40;;;;;;8406544;28;20387;-73
2023/05/04 22:03:12;;;;;;;;;;;20.70;48.80;;;;;;8387493;28;20280;-73
2023/05/04 22:07:14;;;;;;;;;;;20.60;49.10;;;;;;8383949;28;19940;-73
2023/05/04 22:11:16;;;;;;;;;;;20.50;48.90;;;;;;8397367;28;20401;-73
2023/05/04 22:15:18;;;;;;;;;;;20.40;49.00;;;;;;8397863;28;19924;-73
2023/05/04 22:19:20;;;;;;;;;;;20.30;50.30;;;;;;8402018;28;19931;-73
2023/05/04 22:23:21;;;;;;;;;;;20.20;49.20;;;;;;8392765;28;19928;-73
2023/05/04 22:27:23;;;;;;;;;;;20.10;49.20;;;;;;8390538;28;19931;-74
2023/05/04 22:31:25;;;;;;;;;;;20.00;49.20;;;;;;8372692;28;19932;-74
2023/05/04 22:35:26;;;;;;;;;;;19.90;49.20;;;;;;8396809;28;19985;-75
2023/05/04 22:44:32;;;;;;;;;;;19.70;49.90;;;;;;8400034;28;19966;-74
2023/05/04 22:48:34;;;;;;;;;;;19.60;50.60;;;;;;8389312;28;19928;-73
2023/05/04 22:52:36;;;;;;;;;;;19.40;51.00;;;;;;8391189;28;19924;-73
2023/05/04 22:56:38;;;;;;;;;;;19.30;51.20;;;;;;8387654;28;19925;-73
2023/05/04 23:00:39;;;;;;;;;;;19.20;51.70;;;;;;8383050;28;20337;-73
2023/05/04 23:04:41;;;;;;;;;;;19.10;52.30;;;;;;8396027;28;19976;-73
2023/05/04 23:08:44;;;;;;;;;;;19.00;52.70;;;;;;8393337;28;19978;-72
2023/05/04 23:12:46;;;;;;;;;;;18.90;53.30;;;;;;8399340;28;19931;-72
2023/05/04 23:16:48;;;;;;;;;;;18.60;59.30;;;;;;8389493;28;20305;-72
2023/05/04 23:20:49;;;;;;;;;;;18.40;58.60;;;;;;8396903;28;19924;-73
2023/05/04 23:24:51;;;;;;;;;;;18.40;55.50;;;;;;8399237;28;19970;-73
2023/05/04 23:28:53;;;;;;;;;;;18.40;54.90;;;;;;8398310;28;19969;-73
2023/05/04 23:32:55;;;;;;;;;;;18.50;55.30;;;;;;8395190;28;19968;-73
2023/05/04 23:36:56;;;;;;;;;;;18.50;56.40;;;;;;8395054;28;20010;-73
2023/05/04 23:41:00;;;;;;;;;;;18.40;56.20;;;;;;8395170;28;19924;-73
2023/05/04 23:45:03;;;;;;;;;;;18.40;56.40;;;;;;8372101;28;20432;-72
2023/05/04 23:49:05;;;;;;;;;;;18.40;56.70;;;;;;8399037;28;19924;-73